createdAt,value
2022-10-02T00:00:16.016Z,8.9
2022-10-02T00:01:18.049Z,8.9
2022-10-02T00:02:20.014Z,8.9
2022-10-02T00:03:22.007Z,8.8
2022-10-02T00:04:24.098Z,8.8
2022-10-02T00:05:26.019Z,8.8
2022-10-02T00:06:28.020Z,8.8
2022-10-02T00:07:30.019Z,8.8
2022-10-02T00:08:33.023Z,8.7
2022-10-02T00:09:35.023Z,8.7
2022-10-02T00:10:38.044Z,8.7
2022-10-02T00:11:40.014Z,8.7
2022-10-02T00:12:42.027Z,8.7
2022-10-02T00:13:44.055Z,8.7
2022-10-02T00:14:46.135Z,8.7
2022-10-02T00:15:49.024Z,8.7
2022-10-02T00:16:51.080Z,8.7
2022-10-02T00:17:53.069Z,8.7
2022-10-02T00:18:56.233Z,8.7
2022-10-02T00:19:58.019Z,8.7
2022-10-02T00:21:01.482Z,8.8
2022-10-02T00:22:03.089Z,8.8
2022-10-02T00:23:05.033Z,8.8
2022-10-02T00:24:07.082Z,8.8
2022-10-02T00:25:09.037Z,8.8
2022-10-02T00:26:13.032Z,8.8
2022-10-02T00:27:16.025Z,8.9
2022-10-02T00:28:18.139Z,8.9
2022-10-02T00:29:20.063Z,8.9
2022-10-02T00:30:23.080Z,9
2022-10-02T00:31:25.130Z,9
2022-10-02T00:32:27.035Z,9
2022-10-02T00:33:29.075Z,9
2022-10-02T00:34:32.038Z,9.1
2022-10-02T00:35:34.060Z,9.1
2022-10-02T00:36:36.395Z,9
2022-10-02T00:37:38.037Z,9
2022-10-02T00:38:41.296Z,9
2022-10-02T00:40:12.042Z,9
2022-10-02T00:41:12.110Z,9
2022-10-02T00:42:12.036Z,9
2022-10-02T00:43:12.442Z,8.9
2022-10-02T00:44:12.055Z,8.9
2022-10-02T00:45:12.064Z,8.9
2022-10-02T00:46:12.205Z,8.9
2022-10-02T00:47:12.037Z,8.9
2022-10-02T00:48:12.071Z,8.8
2022-10-02T00:49:12.080Z,8.9
2022-10-02T00:50:12.046Z,8.9
2022-10-02T00:51:12.169Z,8.8
2022-10-02T00:52:12.284Z,8.9
2022-10-02T00:53:14.053Z,8.9
2022-10-02T00:54:16.055Z,8.9
2022-10-02T00:55:19.055Z,8.9
2022-10-02T00:56:21.051Z,8.9
2022-10-02T00:57:23.055Z,8.9
2022-10-02T00:58:25.044Z,8.9
2022-10-02T00:59:28.083Z,8.9
2022-10-02T01:00:30.510Z,8.9
2022-10-02T01:02:34.058Z,8.8
2022-10-02T01:03:36.091Z,8.8
2022-10-02T01:04:38.507Z,8.8
2022-10-02T01:05:41.057Z,8.8
2022-10-02T01:06:43.060Z,8.9
2022-10-02T01:07:45.060Z,8.8
2022-10-02T01:08:47.094Z,8.9
2022-10-02T01:09:50.055Z,8.8
2022-10-02T01:10:52.096Z,8.9
2022-10-02T01:11:54.060Z,8.8
2022-10-02T01:12:57.389Z,8.8
2022-10-02T01:13:59.068Z,8.8
2022-10-02T01:15:01.152Z,8.8
2022-10-02T01:16:05.110Z,8.8
2022-10-02T01:17:07.059Z,8.8
2022-10-02T01:18:13.107Z,8.8
2022-10-02T01:19:15.095Z,8.8
2022-10-02T01:20:17.070Z,8.8
2022-10-02T01:21:21.074Z,8.8
2022-10-02T01:22:23.067Z,8.8
2022-10-02T01:23:25.123Z,8.8
2022-10-02T01:24:28.066Z,8.9
2022-10-02T01:25:31.071Z,8.9
2022-10-02T01:26:33.445Z,8.9
2022-10-02T01:27:38.917Z,8.9
2022-10-02T01:28:37.428Z,8.9
2022-10-02T01:29:39.069Z,8.9
2022-10-02T01:30:42.075Z,8.9
2022-10-02T01:31:44.151Z,8.9
2022-10-02T01:32:46.074Z,9
2022-10-02T01:33:48.072Z,9
2022-10-02T01:34:50.103Z,9
2022-10-02T01:35:52.080Z,8.9
2022-10-02T01:36:54.108Z,9
2022-10-02T01:38:01.180Z,9
2022-10-02T01:38:58.079Z,9
2022-10-02T01:40:00.161Z,9
2022-10-02T01:42:17.141Z,8.9
2022-10-02T01:43:20.103Z,8.9
2022-10-02T01:44:22.105Z,8.9
2022-10-02T01:45:24.130Z,8.9
2022-10-02T01:46:26.115Z,8.8
2022-10-02T01:47:28.099Z,8.9
2022-10-02T01:48:30.107Z,8.9
2022-10-02T01:49:32.105Z,8.9
2022-10-02T01:50:35.111Z,8.9
2022-10-02T01:51:37.117Z,8.9
2022-10-02T01:53:54.528Z,8.9
2022-10-02T01:54:44.543Z,8.9
2022-10-02T01:55:47.155Z,8.9
2022-10-02T01:57:52.243Z,8.9
2022-10-02T01:58:54.168Z,8.9
2022-10-02T01:59:56.172Z,9
2022-10-02T02:02:12.605Z,9
2022-10-02T02:03:02.163Z,9
2022-10-02T02:04:12.097Z,8.9
2022-10-02T02:05:12.131Z,9
2022-10-02T02:06:12.099Z,9
2022-10-02T02:07:12.124Z,9
2022-10-02T02:08:12.972Z,9
2022-10-02T02:09:14.991Z,9
2022-10-02T02:10:16.995Z,9
2022-10-02T02:11:18.991Z,9
2022-10-02T02:12:21.009Z,9
2022-10-02T02:13:22.977Z,8.9
2022-10-02T02:14:25.010Z,8.9
2022-10-02T02:15:26.981Z,8.9
2022-10-02T02:16:30.026Z,8.9
2022-10-02T02:17:32.008Z,8.8
2022-10-02T02:18:34.000Z,8.8
2022-10-02T02:19:36.017Z,8.8
2022-10-02T02:20:37.984Z,8.8
2022-10-02T02:21:39.996Z,8.7
2022-10-02T02:22:44.015Z,8.7
2022-10-02T02:23:46.988Z,8.7
2022-10-02T02:24:51.006Z,8.7
2022-10-02T02:25:51.990Z,8.7
2022-10-02T02:26:53.995Z,8.6
2022-10-02T02:27:56.104Z,8.7
2022-10-02T02:28:57.984Z,8.6
2022-10-02T02:30:00.171Z,8.6
2022-10-02T02:31:01.988Z,8.6
2022-10-02T02:32:04.039Z,8.6
2022-10-02T02:33:06.028Z,8.6
2022-10-02T02:34:08.043Z,8.6
2022-10-02T02:35:10.016Z,8.6
2022-10-02T02:36:12.015Z,8.5
2022-10-02T02:37:13.996Z,8.5
2022-10-02T02:38:15.998Z,8.5
2022-10-02T02:39:18.037Z,8.5
2022-10-02T02:40:21.004Z,8.4
2022-10-02T02:41:23.175Z,8.4
2022-10-02T02:42:26.308Z,8.4
2022-10-02T02:43:26.999Z,8.4
2022-10-02T02:44:29.495Z,8.3
2022-10-02T02:45:31.517Z,8.3
2022-10-02T02:46:33.137Z,8.3
2022-10-02T02:47:35.998Z,8.3
2022-10-02T02:48:38.002Z,8.3
2022-10-02T02:49:40.035Z,8.2
2022-10-02T02:50:42.011Z,8.2
2022-10-02T02:51:44.266Z,8.2
2022-10-02T02:52:47.007Z,8.1
2022-10-02T02:53:49.025Z,8.1
2022-10-02T02:54:51.052Z,8.1
2022-10-02T02:55:53.011Z,8.1
2022-10-02T02:56:55.012Z,8
2022-10-02T02:57:57.026Z,8
2022-10-02T02:59:00.026Z,8
2022-10-02T03:00:03.488Z,7.9
2022-10-02T03:01:04.329Z,7.9
2022-10-02T03:02:06.079Z,7.9
2022-10-02T03:03:08.025Z,7.9
2022-10-02T03:04:10.119Z,7.9
2022-10-02T03:05:12.305Z,7.8
2022-10-02T03:06:14.022Z,7.8
2022-10-02T03:07:16.022Z,7.7
2022-10-02T03:08:18.019Z,7.7
2022-10-02T03:09:21.018Z,7.7
2022-10-02T03:10:23.944Z,7.7
2022-10-02T03:11:25.040Z,7.6
2022-10-02T03:12:27.028Z,7.6
2022-10-02T03:13:29.025Z,7.6
2022-10-02T03:14:32.025Z,7.6
2022-10-02T03:15:34.068Z,7.5
2022-10-02T03:16:36.190Z,7.5
2022-10-02T03:17:38.025Z,7.5
2022-10-02T03:18:41.062Z,7.5
2022-10-02T03:19:44.046Z,7.4
2022-10-02T03:20:47.023Z,7.4
2022-10-02T03:21:49.026Z,7.4
2022-10-02T03:22:51.031Z,7.4
2022-10-02T03:23:53.084Z,7.3
2022-10-02T03:24:55.042Z,7.3
2022-10-02T03:25:57.030Z,7.3
2022-10-02T03:26:59.496Z,7.3
2022-10-02T03:28:02.531Z,7.2
2022-10-02T03:29:04.111Z,7.2
2022-10-02T03:30:06.072Z,7.2
2022-10-02T03:32:36.618Z,7.2
2022-10-02T03:34:12.149Z,7.2
2022-10-02T03:35:12.162Z,7.1
2022-10-02T03:36:12.163Z,7.1
2022-10-02T03:37:34.870Z,7.1
2022-10-02T03:39:39.533Z,7.1
2022-10-02T03:41:12.201Z,7
2022-10-02T03:42:12.165Z,7
2022-10-02T03:43:12.166Z,7
2022-10-02T03:44:12.205Z,7
2022-10-02T03:45:23.073Z,7
2022-10-02T03:47:12.166Z,6.9
2022-10-02T03:48:12.169Z,6.9
2022-10-02T03:49:12.198Z,6.9
2022-10-02T03:50:12.297Z,6.9
2022-10-02T03:51:12.547Z,6.9
2022-10-02T03:52:12.696Z,6.9
2022-10-02T03:53:12.759Z,6.9
2022-10-02T03:54:12.518Z,6.8
2022-10-02T03:55:13.731Z,6.8
2022-10-02T03:56:16.399Z,6.8
2022-10-02T03:57:18.151Z,6.8
2022-10-02T03:58:19.969Z,6.8
2022-10-02T03:59:22.016Z,6.8
2022-10-02T04:00:23.918Z,6.8
2022-10-02T04:01:27.026Z,6.7
2022-10-02T04:02:28.976Z,6.8
2022-10-02T04:03:31.025Z,6.7
2022-10-02T04:04:32.952Z,6.7
2022-10-02T04:05:34.973Z,6.7
2022-10-02T04:06:37.238Z,6.7
2022-10-02T04:07:39.023Z,6.7
2022-10-02T04:08:40.969Z,6.7
2022-10-02T04:09:45.143Z,6.7
2022-10-02T04:10:47.958Z,6.7
2022-10-02T04:11:50.520Z,6.7
2022-10-02T04:12:52.093Z,6.7
2022-10-02T04:13:53.956Z,6.7
2022-10-02T04:14:55.928Z,6.7
2022-10-02T04:15:58.364Z,6.7
2022-10-02T04:16:59.909Z,6.7
2022-10-02T04:18:04.719Z,6.7
2022-10-02T04:19:03.967Z,6.7
2022-10-02T04:20:05.915Z,6.7
2022-10-02T04:21:08.059Z,6.7
2022-10-02T04:22:10.038Z,6.7
2022-10-02T04:23:23.432Z,6.7
2022-10-02T04:24:14.056Z,6.8
2022-10-02T04:25:17.694Z,6.8
2022-10-02T04:26:18.985Z,6.8
2022-10-02T04:27:21.006Z,6.8
2022-10-02T04:28:23.208Z,6.8
2022-10-02T04:29:25.191Z,6.8
2022-10-02T04:30:27.507Z,6.8
2022-10-02T04:31:29.044Z,6.8
2022-10-02T04:32:31.009Z,6.8
2022-10-02T04:33:37.696Z,6.8
2022-10-02T04:34:35.105Z,6.8
2022-10-02T04:35:37.910Z,6.8
2022-10-02T04:36:40.096Z,6.8
2022-10-02T04:37:42.409Z,6.8
2022-10-02T04:38:45.510Z,6.8
2022-10-02T04:39:48.515Z,6.8
2022-10-02T04:40:50.214Z,6.9
2022-10-02T04:41:52.128Z,6.9
2022-10-02T04:42:54.090Z,6.9
2022-10-02T04:43:55.972Z,6.9
2022-10-02T04:44:57.985Z,6.9
2022-10-02T04:46:00.040Z,6.9
2022-10-02T04:47:01.928Z,6.9
2022-10-02T04:48:03.950Z,6.9
2022-10-02T04:49:05.952Z,6.9
2022-10-02T04:50:08.018Z,6.9
2022-10-02T04:51:10.988Z,6.9
2022-10-02T04:52:12.989Z,6.9
2022-10-02T04:53:15.271Z,6.9
2022-10-02T04:54:18.271Z,6.9
2022-10-02T04:55:20.635Z,6.9
2022-10-02T04:56:22.837Z,6.9
2022-10-02T04:57:24.606Z,6.9
2022-10-02T04:58:26.458Z,7
2022-10-02T04:59:28.462Z,7
2022-10-02T05:00:30.973Z,7
2022-10-02T05:01:32.635Z,7
2022-10-02T05:02:34.368Z,7
2022-10-02T05:03:36.307Z,7
2022-10-02T05:04:38.190Z,6.9
2022-10-02T05:05:40.463Z,6.9
2022-10-02T05:06:42.515Z,7
2022-10-02T05:07:45.600Z,7
2022-10-02T05:08:48.339Z,7
2022-10-02T05:09:50.504Z,7
2022-10-02T05:10:52.417Z,7
2022-10-02T05:11:54.353Z,7
2022-10-02T05:12:56.337Z,7.1
2022-10-02T05:13:59.103Z,7.1
2022-10-02T05:15:02.011Z,7.1
2022-10-02T05:16:03.206Z,7.1
2022-10-02T05:17:06.396Z,7.1
2022-10-02T05:18:08.036Z,7.1
2022-10-02T05:19:10.355Z,7.1
2022-10-02T05:20:12.777Z,7.1
2022-10-02T05:21:14.048Z,7.1
2022-10-02T05:22:16.163Z,7.1
2022-10-02T05:23:18.018Z,7.1
2022-10-02T05:24:19.955Z,7.1
2022-10-02T05:25:21.955Z,7.1
2022-10-02T05:26:24.008Z,7.1
2022-10-02T05:27:25.953Z,7.1
2022-10-02T05:28:28.009Z,7.1
2022-10-02T05:29:30.022Z,7.1
2022-10-02T05:30:31.952Z,7.2
2022-10-02T05:31:34.037Z,7.2
2022-10-02T05:32:35.966Z,7.2
2022-10-02T05:33:37.989Z,7.2
2022-10-02T05:34:41.007Z,7.2
2022-10-02T05:35:42.960Z,7.2
2022-10-02T05:36:44.992Z,7.2
2022-10-02T05:37:49.004Z,7.2
2022-10-02T05:38:51.022Z,7.2
2022-10-02T05:39:53.960Z,7.2
2022-10-02T05:40:55.976Z,7.3
2022-10-02T05:41:57.991Z,7.3
2022-10-02T05:42:59.964Z,7.3
2022-10-02T05:44:01.988Z,7.3
2022-10-02T05:45:03.972Z,7.3
2022-10-02T05:46:05.961Z,7.3
2022-10-02T05:47:08.056Z,7.3
2022-10-02T05:48:10.002Z,7.3
2022-10-02T05:49:12.000Z,7.3
2022-10-02T05:50:13.978Z,7.4
2022-10-02T05:51:16.976Z,7.4
2022-10-02T05:52:18.976Z,7.4
2022-10-02T05:53:20.968Z,7.5
2022-10-02T05:54:23.025Z,7.5
2022-10-02T05:55:24.972Z,7.5
2022-10-02T05:56:26.978Z,7.5
2022-10-02T05:57:29.974Z,7.5
2022-10-02T05:58:32.008Z,7.6
2022-10-02T05:59:33.974Z,7.6
2022-10-02T06:00:35.972Z,7.6
2022-10-02T06:01:38.135Z,7.6
2022-10-02T06:02:40.113Z,7.7
2022-10-02T06:03:42.024Z,7.7
2022-10-02T06:04:44.992Z,7.7
2022-10-02T06:05:47.981Z,7.7
2022-10-02T06:06:49.986Z,7.7
2022-10-02T06:07:51.986Z,7.7
2022-10-02T06:08:53.979Z,7.7
2022-10-02T06:09:55.981Z,7.8
2022-10-02T06:10:58.989Z,7.8
2022-10-02T06:12:01.169Z,7.8
2022-10-02T06:13:03.329Z,7.9
2022-10-02T06:14:04.995Z,7.9
2022-10-02T06:15:06.991Z,7.9
2022-10-02T06:16:09.104Z,8
2022-10-02T06:17:11.009Z,8
2022-10-02T06:18:13.022Z,8.1
2022-10-02T06:19:15.052Z,8.1
2022-10-02T06:20:16.992Z,8.1
2022-10-02T06:21:18.992Z,8.1
2022-10-02T06:23:23.024Z,8.1
2022-10-02T06:24:24.983Z,8.2
2022-10-02T06:25:26.997Z,8.2
2022-10-02T06:26:29.866Z,8.2
2022-10-02T06:27:32.868Z,8.2
2022-10-02T06:28:35.063Z,8.2
2022-10-02T06:29:36.872Z,8.2
2022-10-02T06:30:38.874Z,8.2
2022-10-02T06:32:42.868Z,8.3
2022-10-02T06:33:44.916Z,8.3
2022-10-02T06:34:48.132Z,8.4
2022-10-02T06:35:48.875Z,8.4
2022-10-02T06:36:50.873Z,8.5
2022-10-02T06:37:52.873Z,8.5
2022-10-02T06:38:55.069Z,8.5
2022-10-02T06:39:56.876Z,8.6
2022-10-02T06:40:58.905Z,8.7
2022-10-02T06:42:01.878Z,8.7
2022-10-02T06:43:03.874Z,8.7
2022-10-02T06:44:07.059Z,8.7
2022-10-02T06:45:08.876Z,8.7
2022-10-02T06:46:10.897Z,8.7
2022-10-02T06:47:12.887Z,8.7
2022-10-02T06:48:14.884Z,8.7
2022-10-02T06:49:17.895Z,8.7
2022-10-02T06:50:19.884Z,8.7
2022-10-02T06:51:21.944Z,8.7
2022-10-02T06:52:23.888Z,8.7
2022-10-02T06:53:25.895Z,8.7
2022-10-02T06:54:27.884Z,8.7
2022-10-02T06:55:42.729Z,8.7
2022-10-02T06:56:31.918Z,8.8
2022-10-02T06:57:33.888Z,8.8
2022-10-02T06:58:35.891Z,8.8
2022-10-02T06:59:37.892Z,8.8
2022-10-02T07:00:39.994Z,8.8
2022-10-02T07:01:41.969Z,8.8
2022-10-02T07:02:43.899Z,8.8
2022-10-02T07:03:45.919Z,8.9
2022-10-02T07:04:48.897Z,8.9
2022-10-02T07:05:50.904Z,8.9
2022-10-02T07:06:52.896Z,8.9
2022-10-02T07:07:55.897Z,9
2022-10-02T07:08:58.963Z,9
2022-10-02T07:10:01.892Z,9
2022-10-02T07:11:03.936Z,9
2022-10-02T07:12:05.972Z,9
2022-10-02T07:13:07.899Z,9
2022-10-02T07:14:09.900Z,9.1
2022-10-02T07:15:11.904Z,9.2
2022-10-02T07:16:13.996Z,9.3
2022-10-02T07:19:19.899Z,9.4
2022-10-02T07:20:21.964Z,9.4
2022-10-02T07:21:23.948Z,9.5
2022-10-02T07:22:44.108Z,9.5
2022-10-02T07:23:27.903Z,9.5
2022-10-02T07:24:29.910Z,9.6
2022-10-02T07:25:31.919Z,9.6
2022-10-02T07:26:35.231Z,9.7
2022-10-02T07:27:36.914Z,9.7
2022-10-02T07:28:39.907Z,9.7
2022-10-02T07:29:41.904Z,9.8
2022-10-02T07:30:43.914Z,9.8
2022-10-02T07:31:46.120Z,9.8
2022-10-02T07:32:47.911Z,9.8
2022-10-02T07:33:49.919Z,9.8
2022-10-02T07:34:51.939Z,9.8
2022-10-02T07:35:53.912Z,9.9
2022-10-02T07:36:55.952Z,9.9
2022-10-02T07:37:58.949Z,9.9
2022-10-02T07:39:01.191Z,9.9
2022-10-02T07:40:02.926Z,9.9
2022-10-02T07:41:04.921Z,10
2022-10-02T07:42:07.048Z,10
2022-10-02T07:43:08.918Z,10
2022-10-02T07:44:10.925Z,10.1
2022-10-02T07:45:12.929Z,10.1
2022-10-02T07:46:15.005Z,10.1
2022-10-02T07:47:16.954Z,10.1
2022-10-02T07:48:18.930Z,10.1
2022-10-02T07:49:20.929Z,10.1
2022-10-02T07:50:22.929Z,10.1
2022-10-02T07:51:24.928Z,10.1
2022-10-02T07:53:28.957Z,10.1
2022-10-02T07:54:30.978Z,10.1
2022-10-02T07:55:32.928Z,10.1
2022-10-02T07:56:36.209Z,10.1
2022-10-02T07:57:37.938Z,10.1
2022-10-02T07:58:39.942Z,10.2
2022-10-02T07:59:41.935Z,10.2
2022-10-02T08:00:43.930Z,10.2
2022-10-02T08:01:45.982Z,10.3
2022-10-02T08:02:47.994Z,10.3
2022-10-02T08:03:49.936Z,10.3
2022-10-02T08:04:51.946Z,10.3
2022-10-02T08:05:53.940Z,10.4
2022-10-02T08:06:55.944Z,10.4
2022-10-02T08:07:59.975Z,10.4
2022-10-02T08:09:01.944Z,10.5
2022-10-02T08:10:04.007Z,10.5
2022-10-02T08:11:05.975Z,10.5
2022-10-02T08:12:07.947Z,10.5
2022-10-02T08:13:09.948Z,10.5
2022-10-02T08:14:11.950Z,10.5
2022-10-02T08:15:13.949Z,10.5
2022-10-02T08:16:16.009Z,10.6
2022-10-02T08:17:17.941Z,10.6
2022-10-02T08:18:34.329Z,10.7
2022-10-02T08:19:22.953Z,10.7
2022-10-02T08:20:28.585Z,10.7
2022-10-02T08:21:26.976Z,10.7
2022-10-02T08:22:28.953Z,10.7
2022-10-02T08:23:30.956Z,10.8
2022-10-02T08:24:32.956Z,10.8
2022-10-02T08:25:34.953Z,10.8
2022-10-02T08:26:37.521Z,10.8
2022-10-02T08:27:38.961Z,10.9
2022-10-02T08:28:40.996Z,10.9
2022-10-02T08:29:42.955Z,10.9
2022-10-02T08:31:48.070Z,10.9
2022-10-02T08:32:49.956Z,10.9
2022-10-02T08:33:51.957Z,11
2022-10-02T08:38:01.979Z,11
2022-10-02T08:39:03.964Z,11
2022-10-02T08:40:05.983Z,11
2022-10-02T08:41:07.960Z,11
2022-10-02T08:42:09.965Z,10.9
2022-10-02T08:43:11.993Z,10.9
2022-10-02T08:44:14.003Z,10.9
2022-10-02T08:45:15.966Z,10.9
2022-10-02T08:46:17.972Z,10.9
2022-10-02T08:49:12.429Z,10.9
2022-10-02T08:51:12.400Z,10.9
2022-10-02T08:52:12.385Z,10.9
2022-10-02T08:53:12.388Z,10.9
2022-10-02T08:54:12.418Z,10.9
2022-10-02T08:55:12.423Z,11
2022-10-02T08:56:15.344Z,11
2022-10-02T08:58:47.007Z,11
2022-10-02T09:00:12.412Z,11
2022-10-02T09:02:12.471Z,11
2022-10-02T09:03:12.389Z,11
2022-10-02T09:04:12.396Z,11
2022-10-02T09:07:05.039Z,11
2022-10-02T09:08:07.024Z,11
2022-10-02T09:09:09.021Z,11
2022-10-02T09:10:11.050Z,11.1
2022-10-02T09:12:24.870Z,11.1
2022-10-02T09:13:17.016Z,11.1
2022-10-02T09:14:24.967Z,11.1
2022-10-02T09:16:12.498Z,11.2
2022-10-02T09:17:12.391Z,11.3
2022-10-02T09:18:12.404Z,11.4
2022-10-02T09:21:33.027Z,11.4
2022-10-02T09:23:37.036Z,11.4
2022-10-02T09:24:39.034Z,11.5
2022-10-02T09:26:12.403Z,11.5
2022-10-02T09:27:12.422Z,11.5
2022-10-02T09:28:12.488Z,11.5
2022-10-02T09:29:12.432Z,11.5
2022-10-02T09:30:12.460Z,11.5
2022-10-02T09:31:12.478Z,11.5
2022-10-02T09:32:12.409Z,11.5
2022-10-02T09:33:15.851Z,11.5
2022-10-02T09:35:12.417Z,11.5
2022-10-02T09:38:12.440Z,11.7
2022-10-02T09:39:13.076Z,11.7
2022-10-02T09:40:15.067Z,11.7
2022-10-02T09:41:17.187Z,11.6
2022-10-02T09:42:20.053Z,11.6
2022-10-02T09:43:22.056Z,11.6
2022-10-02T09:44:24.063Z,11.6
2022-10-02T09:46:12.501Z,11.5
2022-10-02T09:48:12.458Z,11.6
2022-10-02T09:49:12.417Z,11.6
2022-10-02T09:50:12.460Z,11.7
2022-10-02T09:51:12.465Z,11.7
2022-10-02T09:52:12.427Z,11.6
2022-10-02T09:53:12.449Z,11.7
2022-10-02T09:54:12.426Z,11.7
2022-10-02T09:55:12.467Z,11.8
2022-10-02T09:56:12.426Z,11.8
2022-10-02T09:57:12.433Z,11.7
2022-10-02T09:58:12.432Z,11.7
2022-10-02T09:59:12.421Z,11.7
2022-10-02T10:00:12.618Z,11.8
2022-10-02T10:01:12.498Z,11.8
2022-10-02T10:02:12.581Z,11.9
2022-10-02T10:03:12.437Z,11.9
2022-10-02T10:04:12.443Z,11.9
2022-10-02T10:05:12.472Z,11.9
2022-10-02T10:06:12.623Z,11.9
2022-10-02T10:07:17.314Z,12
2022-10-02T10:08:16.085Z,12
2022-10-02T10:09:18.071Z,12
2022-10-02T10:10:20.089Z,12
2022-10-02T10:11:22.092Z,12
2022-10-02T10:12:25.086Z,12.1
2022-10-02T10:13:27.096Z,12.1
2022-10-02T10:14:29.129Z,12
2022-10-02T10:15:31.090Z,12
2022-10-02T10:16:33.155Z,12
2022-10-02T10:17:35.097Z,12
2022-10-02T10:18:37.102Z,12
2022-10-02T10:19:40.120Z,12.1
2022-10-02T10:20:42.093Z,12
2022-10-02T10:21:44.133Z,12
2022-10-02T10:22:46.096Z,12
2022-10-02T10:24:12.488Z,11.9
2022-10-02T10:25:12.474Z,11.9
2022-10-02T10:26:12.448Z,11.9
2022-10-02T10:27:12.459Z,11.9
2022-10-02T10:28:12.519Z,11.8
2022-10-02T10:31:12.548Z,11.8
2022-10-02T10:32:12.456Z,11.8
2022-10-02T10:33:12.457Z,11.7
2022-10-02T10:34:12.461Z,11.7
2022-10-02T10:36:14.916Z,11.8
2022-10-02T10:38:46.534Z,11.8
2022-10-02T10:39:26.247Z,11.8
2022-10-02T10:40:28.245Z,11.8
2022-10-02T10:41:31.294Z,11.8
2022-10-02T10:43:21.898Z,11.9
2022-10-02T10:44:12.476Z,11.9
2022-10-02T10:45:12.490Z,12
2022-10-02T10:46:12.523Z,12
2022-10-02T10:47:12.464Z,12
2022-10-02T10:48:12.465Z,12
2022-10-02T10:49:12.463Z,12.1
2022-10-02T10:50:12.504Z,12.1
2022-10-02T10:51:12.471Z,12.1
2022-10-02T10:52:12.493Z,12.1
2022-10-02T10:53:12.473Z,12.1
2022-10-02T10:54:14.108Z,12.1
2022-10-02T10:55:16.079Z,12.1
2022-10-02T10:56:18.696Z,12.1
2022-10-02T11:00:09.613Z,12.1
2022-10-02T11:00:10.125Z,12.1
2022-10-02T11:01:04.479Z,12
2022-10-02T11:02:51.564Z,12
2022-10-02T11:03:19.370Z,12
2022-10-02T11:05:36.268Z,12
2022-10-02T11:06:26.738Z,12
2022-10-02T11:08:12.482Z,11.9
2022-10-02T11:09:12.482Z,11.9
2022-10-02T11:10:12.511Z,11.9
2022-10-02T11:11:12.504Z,11.8
2022-10-02T11:12:12.487Z,11.8
2022-10-02T11:13:12.479Z,11.8
2022-10-02T11:14:12.489Z,11.8
2022-10-02T11:15:12.490Z,11.8
2022-10-02T11:16:12.556Z,11.8
2022-10-02T11:17:12.483Z,11.8
2022-10-02T11:18:12.486Z,11.7
2022-10-02T11:19:12.492Z,11.7
2022-10-02T11:20:12.495Z,11.7
2022-10-02T11:21:12.529Z,11.7
2022-10-02T11:22:12.491Z,11.6
2022-10-02T11:23:12.493Z,11.6
2022-10-02T11:24:12.493Z,11.6
2022-10-02T11:25:13.092Z,11.6
2022-10-02T11:26:12.521Z,11.6
2022-10-02T11:28:12.552Z,11.7
2022-10-02T11:29:13.763Z,11.7
2022-10-02T11:30:15.761Z,11.7
2022-10-02T11:32:19.776Z,11.8
2022-10-02T11:33:21.780Z,11.8
2022-10-02T11:34:23.763Z,11.8
2022-10-02T11:35:25.760Z,11.8
2022-10-02T11:36:27.755Z,11.8
2022-10-02T11:37:29.783Z,11.8
2022-10-02T11:38:31.767Z,11.8
2022-10-02T11:39:33.776Z,11.8
2022-10-02T11:40:35.771Z,11.8
2022-10-02T11:41:38.272Z,11.8
2022-10-02T11:42:40.807Z,11.8
2022-10-02T11:43:44.087Z,11.7
2022-10-02T11:44:44.771Z,11.7
2022-10-02T11:45:46.815Z,11.8
2022-10-02T11:46:48.770Z,11.8
2022-10-02T11:47:50.809Z,11.8
2022-10-02T11:48:52.806Z,11.8
2022-10-02T11:49:54.776Z,11.7
2022-10-02T11:50:56.799Z,11.7
2022-10-02T11:51:58.776Z,11.7
2022-10-02T11:53:01.148Z,11.7
2022-10-02T11:54:02.818Z,11.8
2022-10-02T11:55:04.783Z,11.7
2022-10-02T11:56:06.772Z,11.7
2022-10-02T11:57:08.807Z,11.8
2022-10-02T11:58:10.806Z,11.8
2022-10-02T11:59:12.841Z,11.8
2022-10-02T12:00:14.807Z,11.9
2022-10-02T12:01:16.781Z,11.9
2022-10-02T12:02:18.886Z,11.9
2022-10-02T12:03:20.879Z,12
2022-10-02T12:04:22.809Z,12
2022-10-02T12:05:24.785Z,12
2022-10-02T12:06:26.787Z,12
2022-10-02T12:07:29.788Z,12
2022-10-02T12:08:31.787Z,12
2022-10-02T12:09:33.972Z,12
2022-10-02T12:10:35.791Z,12
2022-10-02T12:11:38.138Z,12
2022-10-02T12:12:40.788Z,12
2022-10-02T12:13:42.809Z,12
2022-10-02T12:14:44.828Z,12
2022-10-02T12:15:46.801Z,12.1
2022-10-02T12:16:48.946Z,12.1
2022-10-02T12:17:50.794Z,12.1
2022-10-02T12:18:52.807Z,12.1
2022-10-02T12:19:54.793Z,12.1
2022-10-02T12:20:56.802Z,12.1
2022-10-02T12:21:58.796Z,12.1
2022-10-02T12:23:01.805Z,12.1
2022-10-02T12:24:03.818Z,12.1
2022-10-02T12:25:05.799Z,12.1
2022-10-02T12:26:07.802Z,12.2
2022-10-02T12:27:09.966Z,12.1
2022-10-02T12:28:11.896Z,12.2
2022-10-02T12:29:27.991Z,12.2
2022-10-02T12:30:15.807Z,12.2
2022-10-02T12:31:17.926Z,12.2
2022-10-02T12:32:21.806Z,12.2
2022-10-02T12:33:24.812Z,12.2
2022-10-02T12:35:29.455Z,12.2
2022-10-02T12:36:31.432Z,12.2
2022-10-02T12:37:34.430Z,12.2
2022-10-02T12:38:38.457Z,12.2
2022-10-02T12:39:40.437Z,12.3
2022-10-02T12:40:42.439Z,12.4
2022-10-02T12:41:45.488Z,12.4
2022-10-02T12:42:47.463Z,12.4
2022-10-02T12:44:51.449Z,12.4
2022-10-02T12:45:53.528Z,12.4
2022-10-02T12:46:55.456Z,12.5
2022-10-02T12:47:57.482Z,12.5
2022-10-02T12:52:05.464Z,12.4
2022-10-02T12:53:07.481Z,12.4
2022-10-02T12:54:09.451Z,12.4
2022-10-02T12:55:11.447Z,12.4
2022-10-02T12:56:13.444Z,12.4
2022-10-02T12:57:15.444Z,12.4
2022-10-02T12:58:17.460Z,12.4
2022-10-02T12:59:19.448Z,12.4
2022-10-02T13:01:24.400Z,12.3
2022-10-02T13:03:29.095Z,12.3
2022-10-02T13:06:41.097Z,12.4
2022-10-02T13:07:43.103Z,12.4
2022-10-02T13:08:45.132Z,12.4
2022-10-02T13:09:47.107Z,12.4
2022-10-02T13:10:49.140Z,12.4
2022-10-02T13:11:55.601Z,12.3
2022-10-02T13:12:53.107Z,12.3
2022-10-02T13:13:55.113Z,12.3
2022-10-02T13:14:57.120Z,12.3
2022-10-02T13:15:59.146Z,12.3
2022-10-02T13:17:06.308Z,12.3
2022-10-02T13:18:05.110Z,12.3
2022-10-02T13:19:07.189Z,12.4
2022-10-02T13:21:11.157Z,12.4
2022-10-02T13:23:30.713Z,12.4
2022-10-02T13:23:31.241Z,12.4
2022-10-02T13:26:36.045Z,12.5
2022-10-02T13:28:12.688Z,12.6
2022-10-02T13:31:12.694Z,12.5
2022-10-02T13:35:12.626Z,12.5
2022-10-02T13:39:12.591Z,12.6
2022-10-02T13:41:12.619Z,12.5
2022-10-02T13:43:12.622Z,12.5
2022-10-02T13:46:27.397Z,12.4
2022-10-02T13:49:44.881Z,12.4
2022-10-02T13:50:46.883Z,12.4
2022-10-02T13:51:48.900Z,12.4
2022-10-02T13:52:50.882Z,12.3
2022-10-02T13:53:52.885Z,12.3
2022-10-02T13:56:15.469Z,12.4
2022-10-02T13:58:01.940Z,12.4
2022-10-02T13:59:04.045Z,12.4
2022-10-02T14:01:07.971Z,12.3
2022-10-02T14:02:09.923Z,12.3
2022-10-02T14:03:12.625Z,12.3
2022-10-02T14:06:35.052Z,12.4
2022-10-02T14:07:22.513Z,12.4
2022-10-02T14:08:24.530Z,12.4
2022-10-02T14:11:31.184Z,12.5
2022-10-02T14:12:33.189Z,12.5
2022-10-02T14:14:12.632Z,12.6
2022-10-02T14:15:12.660Z,12.6
2022-10-02T14:16:12.652Z,12.6
2022-10-02T14:17:12.658Z,12.6
2022-10-02T14:19:12.621Z,12.6
2022-10-02T14:20:12.625Z,12.6
2022-10-02T14:21:12.641Z,12.6
2022-10-02T14:22:12.625Z,12.6
2022-10-02T14:23:12.629Z,12.6
2022-10-02T14:24:12.621Z,12.6
2022-10-02T14:28:05.778Z,12.5
2022-10-02T14:30:15.244Z,12.6
2022-10-02T14:31:17.283Z,12.6
2022-10-02T14:32:19.251Z,12.6
2022-10-02T14:33:21.335Z,12.6
2022-10-02T14:34:23.277Z,12.6
2022-10-02T14:35:25.256Z,12.6
2022-10-02T14:36:27.254Z,12.6
2022-10-02T14:37:31.244Z,12.6
2022-10-02T14:38:33.289Z,12.6
2022-10-02T14:39:35.256Z,12.6
2022-10-02T14:40:37.253Z,12.6
2022-10-02T14:42:12.664Z,12.5
2022-10-02T14:43:12.641Z,12.5
2022-10-02T14:44:12.663Z,12.5
2022-10-02T14:45:12.647Z,12.6
2022-10-02T14:46:12.709Z,12.6
2022-10-02T14:47:15.445Z,12.5
2022-10-02T14:48:12.664Z,12.6
2022-10-02T14:50:12.653Z,12.5
2022-10-02T14:51:12.693Z,12.5
2022-10-02T14:52:12.658Z,12.5
2022-10-02T14:53:12.654Z,12.4
2022-10-02T14:54:12.652Z,12.4
2022-10-02T14:55:12.651Z,12.3
2022-10-02T14:56:12.675Z,12.3
2022-10-02T14:57:16.193Z,12.3
2022-10-02T14:58:12.677Z,12.3
2022-10-02T14:59:14.268Z,12.3
2022-10-02T15:00:16.268Z,12.3
2022-10-02T15:01:18.362Z,12.3
2022-10-02T15:02:20.295Z,12.2
2022-10-02T15:03:22.268Z,12.2
2022-10-02T15:04:24.292Z,12.2
2022-10-02T15:05:26.279Z,12.2
2022-10-02T15:06:28.271Z,12.1
2022-10-02T15:07:30.323Z,12.2
2022-10-02T15:08:34.273Z,12.2
2022-10-02T15:09:36.280Z,12.2
2022-10-02T15:10:38.274Z,12.2
2022-10-02T15:11:53.082Z,12.1
2022-10-02T15:12:42.304Z,12.1
2022-10-02T15:13:44.303Z,12.2
2022-10-02T15:15:48.339Z,12.2
2022-10-02T15:16:50.275Z,12.2
2022-10-02T15:17:52.329Z,12.1
2022-10-02T15:18:54.288Z,12.1
2022-10-02T15:19:56.284Z,12.1
2022-10-02T15:20:58.286Z,12
2022-10-02T15:22:01.178Z,12
2022-10-02T15:23:02.301Z,12
2022-10-02T15:24:04.295Z,12
2022-10-02T15:25:06.299Z,11.9
2022-10-02T15:26:08.294Z,11.9
2022-10-02T15:27:10.317Z,11.9
2022-10-02T15:28:34.614Z,11.9
2022-10-02T15:29:14.485Z,11.8
2022-10-02T15:30:18.295Z,11.8
2022-10-02T15:33:12.680Z,11.7
2022-10-02T15:34:12.842Z,11.7
2022-10-02T15:35:12.688Z,11.7
2022-10-02T15:36:12.692Z,11.7
2022-10-02T15:37:12.702Z,11.7
2022-10-02T15:38:37.298Z,11.7
2022-10-02T15:39:39.332Z,11.6